createdAt,value
2023-03-22T00:00:17.689Z,61.93
2023-03-22T00:02:46.528Z,61.73
2023-03-22T00:05:14.893Z,61.57
2023-03-22T00:08:07.323Z,61.41
2023-03-22T00:10:40.117Z,61.25
2023-03-22T00:13:09.932Z,61.25
2023-03-22T00:15:38.421Z,61.38
2023-03-22T00:18:12.832Z,61.44
2023-03-22T00:20:48.277Z,61.70
2023-03-22T00:23:16.648Z,61.83
2023-03-22T00:25:46.068Z,62.16
2023-03-22T00:28:14.755Z,62.20
2023-03-22T00:30:57.754Z,62.31
2023-03-22T00:33:29.537Z,62.47
2023-03-22T00:36:05.801Z,62.52
2023-03-22T00:38:44.911Z,62.36
2023-03-22T00:41:21.390Z,62.28
2023-03-22T00:43:49.670Z,62.32
2023-03-22T00:46:20.079Z,62.11
2023-03-22T00:48:48.915Z,62.06
2023-03-22T00:51:18.404Z,62.26
2023-03-22T00:53:50.152Z,62.42
2023-03-22T00:56:19.762Z,62.51
2023-03-22T00:58:56.562Z,62.86
2023-03-22T01:01:25.499Z,63.17
2023-03-22T01:03:54.561Z,63.17
2023-03-22T01:06:23.430Z,63.25
2023-03-22T01:08:55.329Z,63.22
2023-03-22T01:11:25.501Z,63.05
2023-03-22T01:13:55.158Z,63.03
2023-03-22T01:16:23.502Z,63.15
2023-03-22T01:18:52.581Z,63.37
2023-03-22T01:21:20.958Z,63.66
2023-03-22T01:23:51.693Z,63.80
2023-03-22T01:26:20.080Z,63.94
2023-03-22T01:28:48.740Z,63.98
2023-03-22T01:31:17.077Z,64.06
2023-03-22T01:33:45.224Z,64.28
2023-03-22T01:36:13.344Z,64.34
2023-03-22T01:38:41.934Z,64.53
2023-03-22T01:41:10.484Z,64.70
2023-03-22T01:43:41.300Z,64.72
2023-03-22T01:46:09.473Z,64.89
2023-03-22T01:48:48.888Z,65.01
2023-03-22T01:51:25.389Z,65.02
2023-03-22T01:54:37.907Z,65.03
2023-03-22T01:57:18.673Z,65.04
2023-03-22T01:59:47.494Z,65.19
2023-03-22T02:02:31.676Z,65.04
2023-03-22T02:05:09.277Z,64.97
2023-03-22T02:07:37.868Z,64.93
2023-03-22T02:10:23.576Z,64.77
2023-03-22T02:13:29.114Z,64.80
2023-03-22T02:16:32.305Z,64.91
2023-03-22T02:19:11.321Z,64.76
2023-03-22T02:22:12.120Z,64.64
2023-03-22T02:25:18.749Z,64.43
2023-03-22T02:28:02.656Z,64.56
2023-03-22T02:30:34.045Z,64.65
2023-03-22T02:33:28.021Z,64.61
2023-03-22T02:36:12.139Z,64.57
2023-03-22T02:38:59.870Z,64.66
2023-03-22T02:41:35.296Z,64.68
2023-03-22T02:44:28.083Z,64.68
2023-03-22T02:47:21.443Z,64.59
2023-03-22T02:49:54.655Z,64.62
2023-03-22T02:52:35.324Z,64.72
2023-03-22T02:55:34.559Z,64.81
2023-03-22T02:58:09.562Z,64.84
2023-03-22T03:00:39.249Z,64.78
2023-03-22T03:03:11.620Z,64.90
2023-03-22T03:05:43.098Z,65.03
2023-03-22T03:08:11.801Z,65.12
2023-03-22T03:10:41.255Z,64.97
2023-03-22T03:13:14.552Z,65.03
2023-03-22T03:15:44.034Z,65.29
2023-03-22T03:18:45.448Z,65.35
2023-03-22T03:21:30.388Z,65.29
2023-03-22T03:24:20.397Z,65.21
2023-03-22T03:26:58.712Z,65.14
2023-03-22T03:29:41.220Z,65.18
2023-03-22T03:32:12.708Z,65.26
2023-03-22T03:34:52.736Z,65.28
2023-03-22T03:37:31.086Z,65.21
2023-03-22T03:40:11.373Z,65.18
2023-03-22T03:42:43.747Z,65.21
2023-03-22T03:46:25.064Z,65.91
2023-03-22T04:01:23.716Z,65.31
2023-03-22T04:04:09.736Z,64.49
2023-03-22T04:06:56.113Z,64.51
2023-03-22T04:09:28.240Z,64.55
2023-03-22T04:12:03.721Z,64.50
2023-03-22T04:14:32.218Z,64.43
2023-03-22T04:17:01.325Z,64.40
2023-03-22T04:19:30.735Z,64.64
2023-03-22T04:21:57.659Z,64.67
2023-03-22T04:24:24.543Z,64.61
2023-03-22T04:26:52.823Z,64.68
2023-03-22T04:29:31.580Z,64.92
2023-03-22T04:32:06.519Z,64.90
2023-03-22T04:34:40.018Z,65.04
2023-03-22T04:37:13.271Z,64.94
2023-03-22T04:39:53.934Z,65.04
2023-03-22T04:42:58.256Z,65.21
2023-03-22T04:45:45.681Z,65.14
2023-03-22T04:48:14.989Z,65.04
2023-03-22T04:50:42.343Z,65.11
2023-03-22T04:53:11.843Z,65.02
2023-03-22T04:55:39.000Z,65.16
2023-03-22T04:58:05.983Z,65.33
2023-03-22T05:00:32.784Z,65.41
2023-03-22T05:03:03.654Z,65.37
2023-03-22T05:05:34.259Z,65.40
2023-03-22T05:08:01.815Z,65.42
2023-03-22T05:10:29.988Z,65.31
2023-03-22T05:12:57.518Z,65.33
2023-03-22T05:15:31.967Z,65.48
2023-03-22T05:17:58.952Z,65.57
2023-03-22T05:20:26.462Z,65.63
2023-03-22T05:23:24.444Z,65.76
2023-03-22T05:25:53.804Z,65.86
2023-03-22T05:28:22.248Z,65.80
2023-03-22T05:30:57.384Z,65.70
2023-03-22T05:33:46.121Z,65.72
2023-03-22T05:36:14.406Z,66.04
2023-03-22T05:38:56.292Z,66.15
2023-03-22T05:41:23.600Z,66.15
2023-03-22T05:43:50.497Z,66.00
2023-03-22T05:46:19.190Z,66.00
2023-03-22T05:49:10.523Z,65.96
2023-03-22T05:51:42.059Z,65.80
2023-03-22T05:54:09.846Z,65.57
2023-03-22T05:56:40.951Z,65.44
2023-03-22T05:59:13.047Z,65.41
2023-03-22T06:01:43.909Z,65.48
2023-03-22T06:04:20.441Z,65.67
2023-03-22T06:07:08.619Z,65.74
2023-03-22T06:09:44.449Z,65.39
2023-03-22T06:12:15.721Z,64.84
2023-03-22T06:14:44.255Z,64.61
2023-03-22T06:17:42.522Z,64.50
2023-03-22T06:20:12.592Z,64.18
2023-03-22T06:22:41.642Z,63.92
2023-03-22T06:25:09.620Z,63.47
2023-03-22T06:27:40.266Z,62.80
2023-03-22T06:30:08.025Z,62.55
2023-03-22T06:32:46.852Z,62.36
2023-03-22T06:35:14.716Z,62.16
2023-03-22T06:37:42.172Z,61.81
2023-03-22T06:40:11.695Z,61.73
2023-03-22T06:42:39.553Z,61.59
2023-03-22T06:45:10.076Z,61.41
2023-03-22T06:47:38.655Z,61.30
2023-03-22T06:50:06.112Z,61.29
2023-03-22T06:53:00.195Z,61.19
2023-03-22T06:55:27.141Z,61.17
2023-03-22T06:57:55.211Z,61.00
2023-03-22T07:00:22.876Z,60.93
2023-03-22T07:02:52.573Z,61.19
2023-03-22T07:05:27.753Z,61.23
2023-03-22T07:07:55.184Z,61.06
2023-03-22T07:10:23.765Z,61.03
2023-03-22T07:12:51.022Z,60.91
2023-03-22T07:15:19.603Z,60.75
2023-03-22T07:18:02.013Z,60.52
2023-03-22T07:20:32.428Z,60.42
2023-03-22T07:22:59.127Z,60.05
2023-03-22T07:25:27.971Z,59.79
2023-03-22T07:28:02.839Z,59.92
2023-03-22T07:30:37.039Z,59.84
2023-03-22T07:33:05.604Z,59.82
2023-03-22T07:35:32.516Z,59.77
2023-03-22T07:38:00.418Z,59.81
2023-03-22T07:40:30.627Z,59.91
2023-03-22T07:43:01.184Z,59.85
2023-03-22T07:46:00.882Z,59.63
2023-03-22T07:48:55.273Z,59.27
2023-03-22T07:51:41.612Z,59.09
2023-03-22T07:54:08.826Z,59.15
2023-03-22T07:56:35.932Z,58.83
2023-03-22T07:59:03.573Z,58.40
2023-03-22T08:01:30.780Z,58.51
2023-03-22T08:04:07.671Z,58.32
2023-03-22T08:06:50.831Z,57.89
2023-03-22T08:09:17.846Z,57.62
2023-03-22T08:11:45.174Z,57.47
2023-03-22T08:14:13.175Z,57.42
2023-03-22T08:16:41.079Z,57.29
2023-03-22T08:19:08.082Z,57.04
2023-03-22T08:21:36.884Z,56.84
2023-03-22T08:24:04.548Z,56.94
2023-03-22T08:26:35.430Z,56.74
2023-03-22T08:29:09.928Z,56.68
2023-03-22T08:31:37.779Z,56.77
2023-03-22T08:34:05.321Z,56.64
2023-03-22T08:36:32.879Z,56.60
2023-03-22T08:39:03.411Z,56.91
2023-03-22T08:41:52.585Z,57.07
2023-03-22T08:44:19.546Z,56.98
2023-03-22T08:46:46.319Z,56.95
2023-03-22T08:49:14.541Z,57.30
2023-03-22T08:51:47.116Z,57.01
2023-03-22T08:54:22.374Z,56.65
2023-03-22T08:56:52.479Z,56.51
2023-03-22T08:59:31.334Z,56.28
2023-03-22T09:02:11.846Z,56.21
2023-03-22T09:04:40.145Z,56.12
2023-03-22T09:07:08.426Z,56.18
2023-03-22T09:09:36.182Z,56.15
2023-03-22T09:12:04.656Z,56.03
2023-03-22T09:14:34.786Z,56.08
2023-03-22T09:17:04.090Z,55.59
2023-03-22T09:19:32.170Z,54.87
2023-03-22T09:21:59.206Z,54.64
2023-03-22T09:24:41.559Z,54.90
2023-03-22T09:27:08.660Z,54.99
2023-03-22T09:29:35.711Z,54.89
2023-03-22T09:32:06.134Z,54.89
2023-03-22T09:34:34.421Z,54.75
2023-03-22T09:37:05.759Z,54.37
2023-03-22T09:39:44.002Z,54.22
2023-03-22T09:42:25.686Z,54.19
2023-03-22T09:44:54.962Z,54.09
2023-03-22T09:47:44.232Z,53.86
2023-03-22T09:50:23.585Z,53.82
2023-03-22T09:52:50.854Z,53.58
2023-03-22T09:55:20.585Z,53.34
2023-03-22T09:57:58.000Z,53.48
2023-03-22T10:00:33.000Z,53.51
2023-03-22T10:03:16.698Z,53.07
2023-03-22T10:06:08.569Z,52.77
2023-03-22T10:08:37.113Z,52.31
2023-03-22T10:11:13.891Z,52.10
2023-03-22T10:13:44.682Z,51.53
2023-03-22T10:16:18.779Z,50.87
2023-03-22T10:18:47.792Z,51.04
2023-03-22T10:21:15.338Z,50.90
2023-03-22T10:24:03.906Z,50.00
2023-03-22T10:26:36.631Z,49.54
2023-03-22T10:29:24.867Z,49.36
2023-03-22T10:31:52.089Z,48.79
2023-03-22T10:34:19.883Z,48.84
2023-03-22T10:36:49.492Z,48.73
2023-03-22T10:39:31.747Z,48.86
2023-03-22T10:42:00.741Z,48.66
2023-03-22T10:44:28.556Z,48.56
2023-03-22T10:46:59.320Z,48.58
2023-03-22T10:49:31.869Z,48.19
2023-03-22T10:52:02.536Z,48.25
2023-03-22T10:54:30.677Z,48.36
2023-03-22T10:56:57.730Z,48.16
2023-03-22T10:59:47.449Z,47.75
2023-03-22T11:02:17.954Z,47.80
2023-03-22T11:04:52.780Z,47.67
2023-03-22T11:07:36.583Z,47.98
2023-03-22T11:10:03.862Z,47.80
2023-03-22T11:12:40.635Z,47.70
2023-03-22T11:15:39.066Z,47.11
2023-03-22T11:18:08.474Z,46.50
2023-03-22T11:20:35.404Z,45.58
2023-03-22T11:23:04.372Z,45.33
2023-03-22T11:25:33.097Z,45.46
2023-03-22T11:28:04.065Z,45.34
2023-03-22T11:30:32.266Z,44.85
2023-03-22T11:33:06.511Z,45.18
2023-03-22T11:35:35.694Z,45.56
2023-03-22T11:38:03.246Z,45.61
2023-03-22T11:40:33.939Z,45.52
2023-03-22T11:43:10.135Z,45.30
2023-03-22T11:45:45.090Z,44.82
2023-03-22T11:48:17.139Z,44.54
2023-03-22T11:50:44.637Z,43.81
2023-03-22T11:53:19.341Z,43.96
2023-03-22T11:55:47.097Z,44.04
2023-03-22T11:58:28.342Z,43.63
2023-03-22T12:00:58.078Z,43.49
2023-03-22T12:03:27.584Z,43.44
2023-03-22T12:06:03.935Z,43.07
2023-03-22T12:08:44.375Z,42.84
2023-03-22T12:11:15.445Z,43.32
2023-03-22T12:13:46.005Z,43.60
2023-03-22T12:16:15.199Z,43.53
2023-03-22T12:18:48.238Z,43.96
2023-03-22T12:21:16.035Z,44.48
2023-03-22T12:23:43.037Z,44.74
2023-03-22T12:26:21.244Z,44.84
2023-03-22T12:29:07.652Z,44.81
2023-03-22T12:31:52.771Z,45.08
2023-03-22T12:34:23.218Z,45.18
2023-03-22T12:36:54.572Z,45.36
2023-03-22T12:39:34.915Z,45.39
2023-03-22T12:42:16.522Z,45.40
2023-03-22T12:44:46.468Z,45.60
2023-03-22T12:48:16.303Z,45.90
2023-03-22T12:50:47.679Z,46.14
2023-03-22T12:53:15.985Z,46.18
2023-03-22T12:55:43.362Z,46.37
2023-03-22T12:58:12.754Z,46.34
2023-03-22T13:01:20.440Z,46.41
2023-03-22T13:03:51.491Z,46.36
2023-03-22T13:06:54.981Z,46.35
2023-03-22T13:09:27.742Z,46.14
2023-03-22T13:12:17.944Z,46.19
2023-03-22T13:14:52.224Z,45.79
2023-03-22T13:17:22.676Z,45.89
2023-03-22T13:20:06.501Z,45.70
2023-03-22T13:22:37.154Z,45.31
2023-03-22T13:25:07.888Z,44.57
2023-03-22T13:27:53.471Z,43.97
2023-03-22T13:30:24.613Z,43.57
2023-03-22T13:33:08.100Z,43.13
2023-03-22T13:35:53.406Z,41.01
2023-03-22T13:38:21.908Z,37.81
2023-03-22T13:41:06.920Z,34.77
2023-03-22T13:43:44.579Z,33.79
2023-03-22T13:46:12.793Z,33.25
2023-03-22T13:48:46.172Z,33.43
2023-03-22T13:51:26.299Z,34.35
2023-03-22T13:53:56.418Z,34.84
2023-03-22T13:56:56.640Z,35.16
2023-03-22T13:59:26.907Z,35.38
2023-03-22T14:01:56.277Z,35.23
2023-03-22T14:04:37.192Z,34.70
2023-03-22T14:07:28.565Z,34.29
2023-03-22T14:09:59.916Z,34.33
2023-03-22T14:12:44.061Z,34.12
2023-03-22T14:15:20.557Z,32.79
2023-03-22T14:17:50.865Z,31.13
2023-03-22T14:20:22.573Z,29.52
